BWA1543 TTCP-TTPP
Flight info
| Callsign | BWA1543 |
|---|---|
| Flight time | 0h 19m |
| Altitude | 6000 |
| Route | NAPKO DCT LEXOR DCT TALUS |
| Aircraft | AT76/M-MSDFGRSB1/S |
Departure
| Time | 2026-04-22 04:32 |
|---|---|
| Airport | A.N.R. Robinson International Airport (TTCP) |
Arrival
| Time | 2026-04-22 04:51 |
|---|---|
| Airport | Piarco International Airport (TTPP) |
| Time | Latitude | Longitude | Altitude | Speed | Heading |
|---|---|---|---|---|---|
| 2026-04-22 04:23 | 11.15189 | -60.84064 | 32 ft | 0 kts | 4° |
| 2026-04-22 04:29 | 11.15190 | -60.84065 | 32 ft | 0 kts | 353° |
| 2026-04-22 04:29 | 11.15167 | -60.84083 | 32 ft | 9 kts | 197° |
| 2026-04-22 04:29 | 11.15123 | -60.84098 | 31 ft | 0 kts | 229° |
| 2026-04-22 04:30 | 11.15107 | -60.84123 | 31 ft | 12 kts | 232° |
| 2026-04-22 04:30 | 11.15050 | -60.84193 | 30 ft | 6 kts | 230° |
| 2026-04-22 04:30 | 11.15035 | -60.84180 | 30 ft | 5 kts | 85° |
| 2026-04-22 04:30 | 11.15035 | -60.84173 | 30 ft | 0 kts | 94° |
| 2026-04-22 04:31 | 11.15035 | -60.84171 | 30 ft | 7 kts | 94° |
| 2026-04-22 04:31 | 11.15014 | -60.83867 | 29 ft | 76 kts | 94° |
| 2026-04-22 04:31 | 11.14960 | -60.83132 | 88 ft | 123 kts | 94° |
| 2026-04-22 04:31 | 11.14923 | -60.82259 | 622 ft | 126 kts | 91° |
| 2026-04-22 04:32 | 11.14747 | -60.81379 | 941 ft | 137 kts | 116° |
| 2026-04-22 04:32 | 11.14059 | -60.80563 | 959 ft | 167 kts | 144° |
| 2026-04-22 04:32 | 11.12947 | -60.80140 | 1215 ft | 177 kts | 182° |
| 2026-04-22 04:32 | 11.11864 | -60.80669 | 1615 ft | 178 kts | 231° |
| 2026-04-22 04:33 | 11.11190 | -60.81715 | 1972 ft | 181 kts | 238° |
| 2026-04-22 04:33 | 11.10510 | -60.82809 | 2344 ft | 184 kts | 239° |
| 2026-04-22 04:33 | 11.09847 | -60.83936 | 2715 ft | 187 kts | 240° |
| 2026-04-22 04:33 | 11.09177 | -60.85091 | 3064 ft | 191 kts | 239° |
| 2026-04-22 04:34 | 11.08494 | -60.86262 | 3431 ft | 193 kts | 239° |
| 2026-04-22 04:34 | 11.07817 | -60.87418 | 3820 ft | 193 kts | 239° |
| 2026-04-22 04:34 | 11.07126 | -60.88592 | 4191 ft | 194 kts | 239° |
| 2026-04-22 04:34 | 11.06431 | -60.89773 | 4575 ft | 194 kts | 239° |
| 2026-04-22 04:35 | 11.05731 | -60.90953 | 4933 ft | 195 kts | 239° |
| 2026-04-22 04:35 | 11.05032 | -60.92134 | 5302 ft | 195 kts | 239° |
| 2026-04-22 04:35 | 11.04334 | -60.93320 | 5647 ft | 196 kts | 239° |
| 2026-04-22 04:35 | 11.03634 | -60.94510 | 5991 ft | 196 kts | 239° |
| 2026-04-22 04:36 | 11.02931 | -60.95701 | 6317 ft | 197 kts | 239° |
| 2026-04-22 04:36 | 11.02224 | -60.96899 | 6658 ft | 197 kts | 240° |
| 2026-04-22 04:36 | 11.01519 | -60.98103 | 6978 ft | 198 kts | 240° |
| 2026-04-22 04:36 | 11.00819 | -60.99289 | 7288 ft | 199 kts | 240° |
| 2026-04-22 04:37 | 11.00108 | -61.00494 | 7599 ft | 199 kts | 240° |
| 2026-04-22 04:37 | 10.99386 | -61.01713 | 7842 ft | 203 kts | 240° |
| 2026-04-22 04:37 | 10.98640 | -61.02981 | 7923 ft | 215 kts | 240° |
| 2026-04-22 04:37 | 10.97851 | -61.04326 | 7970 ft | 226 kts | 240° |
| 2026-04-22 04:38 | 10.97029 | -61.05729 | 7979 ft | 235 kts | 240° |
| 2026-04-22 04:38 | 10.96187 | -61.07188 | 7986 ft | 241 kts | 240° |
| 2026-04-22 04:38 | 10.95329 | -61.08679 | 7987 ft | 246 kts | 240° |
| 2026-04-22 04:38 | 10.94459 | -61.10170 | 7984 ft | 250 kts | 240° |
| 2026-04-22 04:39 | 10.93554 | -61.11704 | 7981 ft | 253 kts | 240° |
| 2026-04-22 04:39 | 10.92644 | -61.13246 | 7983 ft | 255 kts | 239° |
| 2026-04-22 04:39 | 10.91729 | -61.14799 | 7978 ft | 256 kts | 239° |
| 2026-04-22 04:39 | 10.90808 | -61.16360 | 7983 ft | 257 kts | 239° |
| 2026-04-22 04:40 | 10.89883 | -61.17924 | 7978 ft | 258 kts | 239° |
| 2026-04-22 04:40 | 10.88960 | -61.19491 | 7975 ft | 259 kts | 239° |
| 2026-04-22 04:40 | 10.88033 | -61.21057 | 7983 ft | 259 kts | 239° |
| 2026-04-22 04:40 | 10.87115 | -61.22614 | 7973 ft | 259 kts | 239° |
| 2026-04-22 04:41 | 10.86183 | -61.24186 | 7972 ft | 259 kts | 239° |
| 2026-04-22 04:41 | 10.85255 | -61.25760 | 7971 ft | 259 kts | 239° |
| 2026-04-22 04:41 | 10.84325 | -61.27333 | 7973 ft | 259 kts | 239° |
| 2026-04-22 04:41 | 10.83392 | -61.28908 | 7972 ft | 259 kts | 239° |
| 2026-04-22 04:42 | 10.82462 | -61.30482 | 7974 ft | 259 kts | 239° |
| 2026-04-22 04:42 | 10.81532 | -61.32055 | 7967 ft | 259 kts | 239° |
| 2026-04-22 04:42 | 10.80602 | -61.33623 | 7967 ft | 259 kts | 239° |
| 2026-04-22 04:42 | 10.79673 | -61.35196 | 7978 ft | 259 kts | 240° |
| 2026-04-22 04:43 | 10.78753 | -61.36750 | 7965 ft | 259 kts | 239° |
| 2026-04-22 04:43 | 10.77826 | -61.38320 | 7969 ft | 259 kts | 239° |
| 2026-04-22 04:43 | 10.76896 | -61.39894 | 7981 ft | 259 kts | 239° |
| 2026-04-22 04:43 | 10.75966 | -61.41459 | 7971 ft | 259 kts | 239° |
| 2026-04-22 04:44 | 10.75032 | -61.43036 | 7969 ft | 260 kts | 239° |
| 2026-04-22 04:44 | 10.74102 | -61.44611 | 7981 ft | 260 kts | 239° |
| 2026-04-22 04:44 | 10.73165 | -61.46195 | 7824 ft | 265 kts | 240° |
| 2026-04-22 04:44 | 10.72203 | -61.47822 | 7465 ft | 268 kts | 240° |
| 2026-04-22 04:45 | 10.71236 | -61.49451 | 7090 ft | 268 kts | 240° |
| 2026-04-22 04:45 | 10.70186 | -61.50995 | 6712 ft | 264 kts | 225° |
| 2026-04-22 04:45 | 10.68622 | -61.51897 | 6318 ft | 264 kts | 199° |
| 2026-04-22 04:45 | 10.66827 | -61.52316 | 5890 ft | 267 kts | 187° |
| 2026-04-22 04:46 | 10.64973 | -61.52414 | 5463 ft | 266 kts | 179° |
| 2026-04-22 04:46 | 10.63116 | -61.52391 | 5039 ft | 267 kts | 176° |
| 2026-04-22 04:46 | 10.61290 | -61.52215 | 4591 ft | 257 kts | 162° |
| 2026-04-22 04:46 | 10.59907 | -61.51325 | 4299 ft | 220 kts | 127° |
| 2026-04-22 04:47 | 10.59393 | -61.49988 | 3935 ft | 194 kts | 94° |
| 2026-04-22 04:47 | 10.59349 | -61.48673 | 3501 ft | 179 kts | 88° |
| 2026-04-22 04:47 | 10.59381 | -61.47458 | 3052 ft | 170 kts | 86° |
| 2026-04-22 04:47 | 10.59425 | -61.46272 | 2587 ft | 167 kts | 86° |
| 2026-04-22 04:48 | 10.59473 | -61.45109 | 2197 ft | 163 kts | 86° |
| 2026-04-22 04:48 | 10.59513 | -61.43970 | 1860 ft | 158 kts | 87° |
| 2026-04-22 04:48 | 10.59527 | -61.43239 | 1663 ft | 154 kts | 88° |
| 2026-04-22 04:48 | 10.59541 | -61.41862 | 1401 ft | 133 kts | 89° |
| 2026-04-22 04:49 | 10.59545 | -61.40971 | 1219 ft | 120 kts | 89° |
| 2026-04-22 04:49 | 10.59547 | -61.40419 | 1098 ft | 115 kts | 90° |
| 2026-04-22 04:49 | 10.59543 | -61.39592 | 952 ft | 121 kts | 92° |
| 2026-04-22 04:49 | 10.59520 | -61.38723 | 844 ft | 126 kts | 91° |
| 2026-04-22 04:50 | 10.59513 | -61.37821 | 743 ft | 128 kts | 89° |
| 2026-04-22 04:50 | 10.59519 | -61.36928 | 580 ft | 120 kts | 90° |
| 2026-04-22 04:50 | 10.59522 | -61.36130 | 403 ft | 107 kts | 89° |
| 2026-04-22 04:50 | 10.59531 | -61.35368 | 259 ft | 108 kts | 89° |
| 2026-04-22 04:51 | 10.59535 | -61.34620 | 190 ft | 102 kts | 89° |
| 2026-04-22 04:51 | 10.59537 | -61.33919 | 187 ft | 97 kts | 90° |
| 2026-04-22 04:51 | 10.59558 | -61.33559 | 187 ft | 16 kts | 57° |
| 2026-04-22 04:51 | 10.59616 | -61.33479 | 190 ft | 12 kts | 37° |
| 2026-04-22 04:52 | 10.59679 | -61.33457 | 193 ft | 8 kts | 346° |
| 2026-04-22 04:52 | 10.59708 | -61.33493 | 194 ft | 7 kts | 288° |
| 2026-04-22 04:52 | 10.59711 | -61.33542 | 194 ft | 15 kts | 269° |
| 2026-04-22 04:52 | 10.59710 | -61.33667 | 194 ft | 8 kts | 272° |
| 2026-04-22 04:53 | 10.59728 | -61.33728 | 194 ft | 10 kts | 323° |
| 2026-04-22 04:53 | 10.59779 | -61.33734 | 194 ft | 18 kts | 358° |
| 2026-04-22 04:53 | 10.59905 | -61.33734 | 195 ft | 14 kts | 1° |
| 2026-04-22 04:53 | 10.60010 | -61.33735 | 195 ft | 19 kts | 1° |
| 2026-04-22 04:54 | 10.60091 | -61.33763 | 195 ft | 10 kts | 301° |
| 2026-04-22 04:54 | 10.60093 | -61.33818 | 195 ft | 8 kts | 253° |
| 2026-04-22 04:54 | 10.60074 | -61.33849 | 195 ft | 2 kts | 234° |
| 2026-04-22 04:54 | 10.60070 | -61.33855 | 195 ft | 0 kts | 234° |